createdAt,value
2023-04-28T00:01:48.968Z,101347.38
2023-04-28T00:04:52.053Z,101345.72
2023-04-28T00:07:56.113Z,101336.44
2023-04-28T00:10:58.735Z,101334.31
2023-04-28T00:14:01.312Z,101333.38
2023-04-28T00:17:03.853Z,101338.00
2023-04-28T00:20:07.909Z,101324.44
2023-04-28T00:23:11.796Z,101324.88
2023-04-28T00:26:14.378Z,101310.97
2023-04-28T00:29:16.954Z,101306.22
2023-04-28T00:32:19.505Z,101293.47
2023-04-28T00:35:22.308Z,101290.88
2023-04-28T00:38:26.242Z,101290.44
2023-04-28T00:41:28.737Z,101284.38
2023-04-28T00:44:31.321Z,101283.56
2023-04-28T00:47:33.919Z,101270.81
2023-04-28T00:50:36.501Z,101262.78
2023-04-28T00:53:40.421Z,101264.78
2023-04-28T00:56:43.073Z,101270.69
2023-04-28T00:59:45.798Z,101255.13
2023-04-28T01:02:48.394Z,101256.75
2023-04-28T01:05:50.997Z,101246.78
2023-04-28T01:08:55.885Z,101231.25
2023-04-28T01:11:58.565Z,101234.72
2023-04-28T01:15:01.463Z,101226.72
2023-04-28T01:18:04.268Z,101221.47
2023-04-28T01:21:06.946Z,101231.78
2023-04-28T01:24:10.926Z,101217.41
2023-04-28T01:27:13.507Z,101215.44
2023-04-28T01:30:16.120Z,101221.00
2023-04-28T01:33:18.624Z,101203.47
2023-04-28T01:36:22.549Z,101198.72
2023-04-28T01:39:26.500Z,101182.53
2023-04-28T01:42:29.076Z,101183.81
2023-04-28T01:45:31.675Z,101192.63
2023-04-28T01:48:34.212Z,101191.81
2023-04-28T01:51:36.775Z,101194.25
2023-04-28T01:54:40.628Z,101180.00
2023-04-28T01:57:43.213Z,101178.38
2023-04-28T02:00:45.763Z,101161.69
2023-04-28T02:03:49.080Z,101160.03
2023-04-28T02:06:51.760Z,101161.19
2023-04-28T02:09:55.608Z,101154.03
2023-04-28T02:12:58.130Z,101159.13
2023-04-28T02:16:02.238Z,101144.72
2023-04-28T02:19:04.756Z,101150.28
2023-04-28T02:22:07.287Z,101143.56
2023-04-28T02:25:11.493Z,101144.72
2023-04-28T02:28:14.047Z,101141.50
2023-04-28T02:31:16.646Z,101142.63
2023-04-28T02:34:19.162Z,101131.03
2023-04-28T02:37:21.703Z,101132.66
2023-04-28T02:40:25.680Z,101134.28
2023-04-28T02:43:28.271Z,101135.94
2023-04-28T02:46:30.940Z,101133.59
2023-04-28T02:49:33.492Z,101130.34
2023-04-28T02:52:36.067Z,101120.72
2023-04-28T02:55:39.973Z,101123.97
2023-04-28T02:58:42.506Z,101118.41
2023-04-28T03:01:45.047Z,101109.94
2023-04-28T03:04:47.802Z,101111.44
2023-04-28T03:07:50.412Z,101115.03
2023-04-28T03:10:54.269Z,101111.78
2023-04-28T03:13:56.763Z,101098.91
2023-04-28T03:16:59.277Z,101101.53
2023-04-28T03:20:02.165Z,101090.91
2023-04-28T03:23:04.731Z,101083.22
2023-04-28T03:26:08.611Z,101071.66
2023-04-28T03:29:11.589Z,101072.00
2023-04-28T03:32:14.265Z,101070.69
2023-04-28T03:35:16.960Z,101074.78
2023-04-28T03:38:19.482Z,101073.63
2023-04-28T03:41:23.392Z,101077.22
2023-04-28T03:44:26.646Z,101070.69
2023-04-28T03:47:29.281Z,101049.16
2023-04-28T03:50:31.792Z,101039.19
2023-04-28T03:53:34.307Z,101049.81
2023-04-28T03:56:38.135Z,101028.28
2023-04-28T03:59:40.684Z,101031.06
2023-04-28T04:02:43.318Z,101020.75
2023-04-28T04:05:46.123Z,101012.97
2023-04-28T04:08:49.386Z,101015.28
2023-04-28T04:11:53.250Z,101029.38
2023-04-28T04:14:55.746Z,101026.13
2023-04-28T04:17:58.309Z,101027.28
2023-04-28T04:21:00.938Z,101027.94
2023-04-28T04:24:03.491Z,101026.84
2023-04-28T04:27:07.377Z,101044.31
2023-04-28T04:30:10.870Z,101043.50
2023-04-28T04:33:13.435Z,101035.47
2023-04-28T04:36:15.952Z,101041.84
2023-04-28T04:39:18.486Z,101056.22
2023-04-28T04:42:24.820Z,101043.16
2023-04-28T04:45:28.157Z,101038.25
2023-04-28T04:48:30.861Z,101036.97
2023-04-28T04:51:33.422Z,101034.88
2023-04-28T04:54:36.092Z,101026.53
2023-04-28T04:57:40.034Z,101013.31
2023-04-28T05:00:42.555Z,101017.25
2023-04-28T05:03:45.171Z,101027.09
2023-04-28T05:06:47.898Z,101023.00
2023-04-28T05:09:50.452Z,101022.56
2023-04-28T05:12:54.388Z,101009.81
2023-04-28T05:15:56.938Z,100989.41
2023-04-28T05:18:59.455Z,100994.16
2023-04-28T05:22:01.971Z,100984.53
2023-04-28T05:25:04.822Z,100984.53
2023-04-28T05:28:09.283Z,100983.13
2023-04-28T05:31:11.848Z,100969.09
2023-04-28T05:34:14.599Z,100971.53
2023-04-28T05:37:17.305Z,100969.09
2023-04-28T05:40:19.961Z,100976.16
2023-04-28T05:43:23.888Z,100967.34
2023-04-28T05:46:30.655Z,100978.34
2023-04-28T05:49:33.432Z,100984.78
2023-04-28T05:52:35.945Z,100987.16
2023-04-28T05:55:38.820Z,100984.84
2023-04-28T05:58:44.355Z,100974.69
2023-04-28T06:01:46.905Z,100982.81
2023-04-28T06:04:49.810Z,100989.31
2023-04-28T06:07:55.048Z,100971.97
2023-04-28T06:10:57.723Z,100991.88
2023-04-28T06:14:01.589Z,100988.63
2023-04-28T06:17:04.688Z,100995.81
2023-04-28T06:20:10.612Z,100988.75
2023-04-28T06:23:13.188Z,100981.72
2023-04-28T06:26:17.963Z,100967.63
2023-04-28T06:29:23.931Z,100956.72
2023-04-28T06:32:26.524Z,100953.94
2023-04-28T06:35:29.175Z,100955.97
2023-04-28T06:38:31.696Z,100947.63
2023-04-28T06:41:34.418Z,100955.69
2023-04-28T06:44:38.300Z,100955.47
2023-04-28T06:47:41.235Z,100964.34
2023-04-28T06:50:44.106Z,100958.72
2023-04-28T06:53:46.700Z,100954.66
2023-04-28T06:56:49.247Z,100956.28
2023-04-28T06:59:53.257Z,100953.84
2023-04-28T07:02:55.911Z,100961.81
2023-04-28T07:05:58.773Z,100971.31
2023-04-28T07:09:01.337Z,100954.66
2023-04-28T07:12:04.062Z,100961.81
2023-04-28T07:15:10.371Z,100962.09
2023-04-28T07:18:13.181Z,100960.75
2023-04-28T07:21:15.850Z,100965.88
2023-04-28T07:24:18.551Z,100959.66
2023-04-28T07:27:21.423Z,100961.53
2023-04-28T07:30:28.283Z,100971.28
2023-04-28T07:33:30.945Z,100962.72
2023-04-28T07:36:33.492Z,100957.44
2023-04-28T07:39:36.084Z,100956.06
2023-04-28T07:42:38.636Z,100952.88
2023-04-28T07:45:45.462Z,100955.19
2023-04-28T07:48:48.083Z,100959.50
2023-04-28T07:51:53.527Z,100951.50
2023-04-28T07:54:56.103Z,100946.38
2023-04-28T07:57:58.786Z,100960.13
2023-04-28T08:01:02.653Z,100966.59
2023-04-28T08:04:05.508Z,100964.75
2023-04-28T08:07:09.055Z,100962.22
2023-04-28T08:10:11.841Z,100953.31
2023-04-28T08:13:16.609Z,100957.81
2023-04-28T08:16:20.588Z,100959.69
2023-04-28T08:19:23.377Z,100963.06
2023-04-28T08:22:25.990Z,100956.47
2023-04-28T08:25:28.535Z,100964.22
2023-04-28T08:28:31.261Z,100959.25
2023-04-28T08:31:35.129Z,100953.91
2023-04-28T08:34:37.741Z,100939.78
2023-04-28T08:37:40.305Z,100943.25
2023-04-28T08:40:43.396Z,100946.72
2023-04-28T08:43:45.979Z,100950.41
2023-04-28T08:46:49.917Z,100946.69
2023-04-28T08:49:52.547Z,100939.00
2023-04-28T08:52:55.547Z,100938.78
2023-04-28T08:55:58.919Z,100939.69
2023-04-28T08:59:03.378Z,100935.16
2023-04-28T09:02:07.743Z,100929.06
2023-04-28T09:05:10.640Z,100939.25
2023-04-28T09:08:13.362Z,100925.16
2023-04-28T09:11:16.542Z,100932.59
2023-04-28T09:14:19.248Z,100931.19
2023-04-28T09:17:23.407Z,100919.75
2023-04-28T09:20:27.036Z,100922.06
2023-04-28T09:23:29.544Z,100923.41
2023-04-28T09:26:50.513Z,100927.28
2023-04-28T09:29:53.870Z,100918.03
2023-04-28T09:33:05.208Z,100913.09
2023-04-28T09:36:08.045Z,100921.25
2023-04-28T09:39:10.541Z,100918.66
2023-04-28T09:42:29.884Z,100926.75
2023-04-28T09:45:32.479Z,100926.03
2023-04-28T09:48:37.968Z,100926.94
2023-04-28T09:51:40.681Z,100926.28
2023-04-28T09:54:43.244Z,100930.38
2023-04-28T09:57:47.289Z,100928.75
2023-04-28T10:00:53.390Z,100932.69
2023-04-28T10:03:57.464Z,100936.38
2023-04-28T10:07:00.463Z,100940.06
2023-04-28T10:10:04.373Z,100942.13
2023-04-28T10:13:06.940Z,100936.13
2023-04-28T10:16:09.596Z,100940.06
2023-04-28T10:19:13.509Z,100941.69
2023-04-28T10:22:25.655Z,100942.88
2023-04-28T10:25:28.779Z,100945.66
2023-04-28T10:28:31.344Z,100948.44
2023-04-28T10:31:34.885Z,100951.25
2023-04-28T10:34:39.358Z,100957.63
2023-04-28T10:38:03.505Z,100958.88
2023-04-28T10:41:06.086Z,100951.31
2023-04-28T10:44:42.923Z,100954.47
2023-04-28T10:48:04.024Z,100959.97
2023-04-28T10:51:33.347Z,100964.38
2023-04-28T10:54:36.287Z,100968.81
2023-04-28T10:57:38.806Z,100962.47
2023-04-28T11:00:42.314Z,100957.00
2023-04-28T11:03:51.070Z,100958.59
2023-04-28T11:07:14.652Z,100964.91
2023-04-28T11:10:17.177Z,100958.53
2023-04-28T11:13:31.702Z,100960.22
2023-04-28T11:16:34.266Z,100957.88
2023-04-28T11:19:37.584Z,100965.97
2023-04-28T11:22:41.611Z,100969.66
2023-04-28T11:25:56.719Z,100966.16
2023-04-28T11:28:59.540Z,100963.81
2023-04-28T11:32:02.149Z,100973.78
2023-04-28T11:35:09.357Z,100979.84
2023-04-28T11:38:13.220Z,100970.28
2023-04-28T11:41:15.848Z,100975.97
2023-04-28T11:44:19.632Z,100967.69
2023-04-28T11:47:32.376Z,100974.63
2023-04-28T11:50:38.061Z,100988.28
2023-04-28T11:53:45.470Z,100981.53
2023-04-28T11:56:47.847Z,100987.59
2023-04-28T11:59:50.901Z,100983.59
2023-04-28T12:02:54.995Z,100984.50
2023-04-28T12:05:57.897Z,100987.72
2023-04-28T12:09:04.531Z,100989.03
2023-04-28T12:12:07.807Z,100990.78
2023-04-28T12:15:10.818Z,100993.19
2023-04-28T12:18:16.234Z,100986.50
2023-04-28T12:21:22.051Z,100988.13
2023-04-28T12:24:26.838Z,100997.75
2023-04-28T12:27:29.428Z,100997.47
2023-04-28T12:30:32.868Z,100998.78
2023-04-28T12:33:38.605Z,101002.03
2023-04-28T12:36:41.242Z,101001.31
2023-04-28T12:39:45.573Z,101001.31
2023-04-28T12:42:48.496Z,101006.16
2023-04-28T12:45:51.166Z,101008.09
2023-04-28T12:48:53.836Z,101017.34
2023-04-28T12:51:56.412Z,101016.63
2023-04-28T12:55:00.351Z,101017.50
2023-04-28T12:58:02.950Z,101018.22
2023-04-28T13:01:05.687Z,101026.34
2023-04-28T13:04:09.410Z,101020.75
2023-04-28T13:07:12.016Z,101024.72
2023-04-28T13:10:15.948Z,101027.94
2023-04-28T13:13:18.530Z,101035.59
2023-04-28T13:16:21.259Z,101035.16
2023-04-28T13:19:23.990Z,101034.44
2023-04-28T13:22:26.542Z,101034.44
2023-04-28T13:25:31.066Z,101035.66
2023-04-28T13:28:33.665Z,101029.81
2023-04-28T13:31:36.312Z,101039.44
2023-04-28T13:34:39.010Z,101048.72
2023-04-28T13:37:45.688Z,101037.94
2023-04-28T13:40:49.632Z,101036.34
2023-04-28T13:43:52.143Z,101037.16
2023-04-28T13:46:54.661Z,101041.19
2023-04-28T13:49:57.217Z,101042.38
2023-04-28T13:52:59.820Z,101037.94
2023-04-28T13:56:03.814Z,101043.63
2023-04-28T13:59:06.497Z,101043.25
2023-04-28T14:02:09.683Z,101054.03
2023-04-28T14:05:12.543Z,101051.63
2023-04-28T14:08:15.112Z,101050.06
2023-04-28T14:11:19.067Z,101056.81
2023-04-28T14:14:22.267Z,101058.00
2023-04-28T14:17:24.869Z,101060.78
2023-04-28T14:20:28.109Z,101065.22
2023-04-28T14:23:30.708Z,101067.25
2023-04-28T14:26:34.557Z,101067.25
2023-04-28T14:29:37.150Z,101075.66
2023-04-28T14:32:40.143Z,101075.66
2023-04-28T14:35:42.818Z,101062.06
2023-04-28T14:38:45.616Z,101065.22
2023-04-28T14:41:49.565Z,101062.78
2023-04-28T14:44:54.416Z,101073.16
2023-04-28T14:47:57.912Z,101070.00
2023-04-28T14:51:00.492Z,101065.94
2023-04-28T14:54:03.374Z,101072.34
2023-04-28T14:57:08.153Z,101078.84
2023-04-28T15:00:11.741Z,101078.03
2023-04-28T15:03:14.426Z,101074.78
2023-04-28T15:06:17.126Z,101080.38
2023-04-28T15:09:19.690Z,101072.44
2023-04-28T15:12:23.688Z,101072.44
2023-04-28T15:15:26.914Z,101068.06
2023-04-28T15:18:29.526Z,101066.06
2023-04-28T15:21:32.033Z,101073.31
2023-04-28T15:24:34.595Z,101078.44
2023-04-28T15:27:38.716Z,101077.28
2023-04-28T15:30:41.282Z,101075.66
2023-04-28T15:33:43.833Z,101082.00
2023-04-28T15:36:46.424Z,101085.97
2023-04-28T15:39:48.993Z,101085.09
2023-04-28T15:42:53.130Z,101081.91
2023-04-28T15:45:55.706Z,101093.91
2023-04-28T15:48:58.219Z,101090.69
2023-04-28T15:52:00.779Z,101095.38
2023-04-28T15:55:03.487Z,101084.19
2023-04-28T15:58:08.641Z,101095.72
2023-04-28T16:01:11.630Z,101096.94
2023-04-28T16:04:14.601Z,101093.31
2023-04-28T16:07:17.239Z,101098.53
2023-04-28T16:10:19.811Z,101098.91
2023-04-28T16:13:23.716Z,101106.50
2023-04-28T16:16:26.755Z,101104.13
2023-04-28T16:19:30.197Z,101101.25
2023-04-28T16:22:32.753Z,101111.63
2023-04-28T16:25:35.287Z,101121.66
2023-04-28T16:28:39.215Z,101123.56
2023-04-28T16:31:42.153Z,101124.63
2023-04-28T16:34:44.785Z,101127.72
2023-04-28T16:37:47.287Z,101131.69
2023-04-28T16:40:49.958Z,101128.53
2023-04-28T16:43:53.920Z,101133.78
2023-04-28T16:46:57.214Z,101138.91
2023-04-28T16:49:59.802Z,101131.63
2023-04-28T16:53:02.317Z,101141.53
2023-04-28T16:56:05.009Z,101148.28
2023-04-28T16:59:08.854Z,101146.69
2023-04-28T17:02:11.413Z,101148.28
2023-04-28T17:05:14.054Z,101155.44
2023-04-28T17:08:16.579Z,101153.75
2023-04-28T17:11:19.083Z,101164.91
2023-04-28T17:14:22.956Z,101167.25
2023-04-28T17:17:25.798Z,101163.56
2023-04-28T17:20:28.386Z,101167.09
2023-04-28T17:23:30.940Z,101176.63
2023-04-28T17:26:33.487Z,101169.41
2023-04-28T17:29:37.689Z,101179.00
2023-04-28T17:32:40.717Z,101178.91
2023-04-28T17:35:43.324Z,101182.03
2023-04-28T17:38:45.904Z,101186.75
2023-04-28T17:41:48.488Z,101194.66
2023-04-28T17:44:52.766Z,101198.63
2023-04-28T17:47:57.589Z,101209.38
2023-04-28T17:51:00.253Z,101204.94
2023-04-28T17:54:02.809Z,101203.31
2023-04-28T17:57:05.355Z,101214.50
2023-04-28T18:00:11.244Z,101204.50
2023-04-28T18:03:13.905Z,101215.25
2023-04-28T18:06:16.562Z,101212.44
2023-04-28T18:09:19.063Z,101219.19
2023-04-28T18:12:21.610Z,101219.19
2023-04-28T18:15:25.556Z,101223.63
2023-04-28T18:18:30.253Z,101220.72
2023-04-28T18:21:33.998Z,101224.59
2023-04-28T18:24:36.558Z,101220.53
2023-04-28T18:27:39.125Z,101240.47
2023-04-28T18:30:42.014Z,101234.06
2023-04-28T18:33:44.988Z,101242.78
2023-04-28T18:36:47.640Z,101243.13
2023-04-28T18:39:50.227Z,101249.81
2023-04-28T18:42:52.767Z,101250.84
2023-04-28T18:45:56.666Z,101253.53
2023-04-28T18:48:59.355Z,101259.84
2023-04-28T18:52:03.488Z,101271.72
2023-04-28T18:55:06.811Z,101267.53
2023-04-28T18:58:09.561Z,101268.28
2023-04-28T19:01:16.991Z,101280.13
2023-04-28T19:04:19.796Z,101276.44
2023-04-28T19:07:22.588Z,101279.91
2023-04-28T19:10:25.171Z,101284.25
2023-04-28T19:13:27.711Z,101294.59
2023-04-28T19:16:31.619Z,101295.28
2023-04-28T19:19:34.968Z,101302.03
2023-04-28T19:22:38.265Z,101302.03
2023-04-28T19:25:40.883Z,101304.38
2023-04-28T19:28:43.501Z,101317.88
2023-04-28T19:31:48.832Z,101313.94
2023-04-28T19:34:51.418Z,101325.91
2023-04-28T19:37:55.656Z,101326.72
2023-04-28T19:41:01.777Z,101332.31
2023-04-28T19:44:04.406Z,101337.88
2023-04-28T19:47:08.293Z,101336.94
2023-04-28T19:50:11.484Z,101346.03
2023-04-28T19:53:14.624Z,101352.78
2023-04-28T19:56:17.134Z,101361.50
2023-04-28T19:59:19.676Z,101364.63
2023-04-28T20:02:23.684Z,101365.34
2023-04-28T20:05:26.326Z,101362.09
2023-04-28T20:08:29.407Z,101372.31
2023-04-28T20:11:32.724Z,101375.81
2023-04-28T20:14:35.421Z,101382.56
2023-04-28T20:17:39.428Z,101390.94
2023-04-28T20:20:43.353Z,101401.63
2023-04-28T20:23:45.879Z,101405.56
2023-04-28T20:26:49.370Z,101407.06
2023-04-28T20:29:52.408Z,101405.47
2023-04-28T20:32:56.472Z,101401.38
2023-04-28T20:35:59.026Z,101409.28
2023-04-28T20:39:01.604Z,101413.22
2023-04-28T20:42:04.224Z,101428.38
2023-04-28T20:45:07.907Z,101437.41
2023-04-28T20:48:11.915Z,101430.56
2023-04-28T20:51:14.526Z,101432.06
2023-04-28T20:54:17.229Z,101436.72
2023-04-28T20:57:19.724Z,101436.91
2023-04-28T21:00:22.405Z,101433.19
2023-04-28T21:03:26.384Z,101437.84
2023-04-28T21:06:28.907Z,101446.56
2023-04-28T21:09:31.395Z,101450.84
2023-04-28T21:12:33.884Z,101444.81
2023-04-28T21:15:37.661Z,101450.72
2023-04-28T21:18:41.574Z,101446.19
2023-04-28T21:21:44.121Z,101448.03
2023-04-28T21:24:46.701Z,101456.28
2023-04-28T21:27:49.205Z,101456.13
2023-04-28T21:30:52.644Z,101454.53
2023-04-28T21:33:56.540Z,101460.09
2023-04-28T21:36:59.130Z,101459.28
2023-04-28T21:40:01.920Z,101466.00
2023-04-28T21:43:05.797Z,101480.63
2023-04-28T21:46:08.480Z,101476.56
2023-04-28T21:49:12.974Z,101474.91
2023-04-28T21:52:15.489Z,101485.59
2023-04-28T21:55:18.256Z,101477.22
2023-04-28T21:58:20.906Z,101482.81
2023-04-28T22:01:23.593Z,101481.84
2023-04-28T22:04:27.561Z,101480.53
2023-04-28T22:07:30.509Z,101490.41
2023-04-28T22:10:34.162Z,101484.84
2023-04-28T22:13:36.796Z,101482.88
2023-04-28T22:16:39.597Z,101482.50
2023-04-28T22:19:43.471Z,101482.50
2023-04-28T22:22:46.040Z,101491.22
2023-04-28T22:25:49.159Z,101491.56
2023-04-28T22:28:52.213Z,101493.19
2023-04-28T22:31:54.761Z,101485.50
2023-04-28T22:34:58.667Z,101492.59
2023-04-28T22:38:01.367Z,101499.66
2023-04-28T22:41:03.909Z,101515.88
2023-04-28T22:44:06.462Z,101522.97
2023-04-28T22:47:09.071Z,101516.91
2023-04-28T22:50:13.029Z,101522.81
2023-04-28T22:53:15.776Z,101516.78
2023-04-28T22:56:18.359Z,101522.34
2023-04-28T22:59:20.870Z,101525.47
2023-04-28T23:02:23.849Z,101533.00
2023-04-28T23:05:27.936Z,101533.34
2023-04-28T23:08:30.544Z,101537.28
2023-04-28T23:11:33.097Z,101534.84
2023-04-28T23:14:35.629Z,101537.63
2023-04-28T23:17:38.218Z,101530.44
2023-04-28T23:20:42.148Z,101531.59
2023-04-28T23:23:44.683Z,101539.13
2023-04-28T23:26:47.196Z,101545.50
2023-04-28T23:29:49.890Z,101543.88
2023-04-28T23:32:52.627Z,101545.03
2023-04-28T23:35:56.517Z,101548.97
2023-04-28T23:38:59.007Z,101554.06
2023-04-28T23:42:01.747Z,101563.09
2023-04-28T23:45:06.311Z,101571.09
2023-04-28T23:48:08.840Z,101572.59
2023-04-28T23:51:12.693Z,101570.97
2023-04-28T23:54:15.220Z,101586.06
2023-04-28T23:57:17.774Z,101578.84
